This is the latest recevied weather packets stored in our database for station/object DD3UTS-13. If no packets are shown the sender has not sent any weather packets the latest 10 day(s).
| Time | Temp. | Humidity | Pressure | Rain* | Wind** | Luminosity | Snow |
|---|---|---|---|---|---|---|---|
| 1777558532 | 17.22° C | 35% | 1028.5 hPa | 0 mm | - | 269 W/m² | - |
| 1777558232 | 17.78° C | 35% | 1028.5 hPa | 0 mm | - | 525 W/m² | - |
| 1777557932 | 17.78° C | 35% | 1028.8 hPa | 0 mm | - | 662 W/m² | - |
| 1777557632 | 17.22° C | 34% | 1028.9 hPa | 0 mm | - | 631 W/m² | - |
| 1777557331 | 17.22° C | 36% | 1028.8 hPa | 0 mm | - | 626 W/m² | - |
| 1777557031 | 16.67° C | 36% | 1028.9 hPa | 0 mm | - | 591 W/m² | - |
| 1777556732 | 16.11° C | 37% | 1028.8 hPa | 0 mm | - | 558 W/m² | - |
| 1777556432 | 15.56° C | 38% | 1028.8 hPa | 0 mm | - | 601 W/m² | - |
| 1777556132 | 15° C | 38% | 1028.9 hPa | 0 mm | - | 579 W/m² | - |
| 1777555833 | 15° C | 37% | 1028.7 hPa | 0 mm | - | 183 W/m² | - |
| 1777555532 | 14.44° C | 37% | 1028.9 hPa | 0 mm | - | 652 W/m² | - |
| 1777555232 | 13.89° C | 37% | 1029 hPa | 0 mm | - | 631 W/m² | - |
| 1777554932 | 14.44° C | 37% | 1028.8 hPa | 0 mm | - | 230 W/m² | - |
| 1777554631 | 15° C | 37% | 1028.8 hPa | 0 mm | - | 226 W/m² | - |
| 1777554332 | 15.56° C | 34% | 1028.9 hPa | 0 mm | - | 277 W/m² | - |
| 1777554032 | 15.56° C | 34% | 1029 hPa | 0 mm | - | 277 W/m² | - |
| 1777553732 | 16.11° C | 34% | 1029.1 hPa | 0 mm | - | 322 W/m² | - |
| 1777553432 | 16.67° C | 35% | 1029.1 hPa | 0 mm | - | 659 W/m² | - |
| 1777553131 | 15.56° C | 35% | 1029.2 hPa | 0 mm | - | 447 W/m² | - |
| 1777552832 | 16.11° C | 33% | 1029.1 hPa | 0 mm | - | 431 W/m² | - |
| 1777552531 | 16.67° C | 33% | 1029.2 hPa | 0 mm | - | 639 W/m² | - |
| 1777552232 | 16.67° C | 34% | 1029.3 hPa | 0 mm | - | 722 W/m² | - |
| 1777551932 | 16.11° C | 34% | 1029.2 hPa | 0 mm | - | 656 W/m² | - |
| 1777551632 | 16.67° C | 34% | 1029.3 hPa | 0 mm | - | 588 W/m² | - |
| 1777551332 | 16.67° C | 34% | 1029.3 hPa | 0 mm | - | 588 W/m² | - |
* Rain latest 24 hours (hover to see other rain measurements)
** Current wind speed in m/s (hover to see current wind gust speed)